sensor_id;sensor_type;location;lat;lon;timestamp;temperature;humidity
4725;DHT22;2376;53.544;10.226;2022-08-07T00:01:17;14.40;99.90
4725;DHT22;2376;53.544;10.226;2022-08-07T00:03:44;14.30;99.90
4725;DHT22;2376;53.544;10.226;2022-08-07T00:06:11;14.30;99.90
4725;DHT22;2376;53.544;10.226;2022-08-07T00:08:39;14.30;99.90
4725;DHT22;2376;53.544;10.226;2022-08-07T00:11:06;14.30;99.90
4725;DHT22;2376;53.544;10.226;2022-08-07T00:13:34;14.20;99.90
4725;DHT22;2376;53.544;10.226;2022-08-07T00:16:03;14.10;99.90
4725;DHT22;2376;53.544;10.226;2022-08-07T00:18:30;14.00;99.90
4725;DHT22;2376;53.544;10.226;2022-08-07T00:20:59;14.00;99.90
4725;DHT22;2376;53.544;10.226;2022-08-07T00:23:27;13.90;99.90
4725;DHT22;2376;53.544;10.226;2022-08-07T00:25:54;13.90;99.90
4725;DHT22;2376;53.544;10.226;2022-08-07T00:28:21;14.00;99.90
4725;DHT22;2376;53.544;10.226;2022-08-07T00:30:49;14.10;99.90
4725;DHT22;2376;53.544;10.226;2022-08-07T00:33:16;14.10;99.90
4725;DHT22;2376;53.544;10.226;2022-08-07T00:35:43;14.10;99.90
4725;DHT22;2376;53.544;10.226;2022-08-07T00:38:10;14.10;99.90
4725;DHT22;2376;53.544;10.226;2022-08-07T00:40:36;14.10;99.90
4725;DHT22;2376;53.544;10.226;2022-08-07T00:43:04;14.20;99.90
4725;DHT22;2376;53.544;10.226;2022-08-07T00:45:31;14.20;99.90
4725;DHT22;2376;53.544;10.226;2022-08-07T00:47:59;14.10;99.90
4725;DHT22;2376;53.544;10.226;2022-08-07T00:50:25;14.10;99.90
4725;DHT22;2376;53.544;10.226;2022-08-07T00:52:52;14.10;99.90
4725;DHT22;2376;53.544;10.226;2022-08-07T00:55:19;14.10;99.90
4725;DHT22;2376;53.544;10.226;2022-08-07T00:57:46;14.00;99.90
4725;DHT22;2376;53.544;10.226;2022-08-07T01:00:13;14.10;99.90
4725;DHT22;2376;53.544;10.226;2022-08-07T01:02:40;14.00;99.90
4725;DHT22;2376;53.544;10.226;2022-08-07T01:05:10;14.00;99.90
4725;DHT22;2376;53.544;10.226;2022-08-07T01:07:38;13.80;99.90
4725;DHT22;2376;53.544;10.226;2022-08-07T01:10:05;13.70;99.90
4725;DHT22;2376;53.544;10.226;2022-08-07T01:12:33;13.60;99.90
4725;DHT22;2376;53.544;10.226;2022-08-07T01:15:00;13.50;99.90
4725;DHT22;2376;53.544;10.226;2022-08-07T01:17:27;13.50;99.90
4725;DHT22;2376;53.544;10.226;2022-08-07T01:19:57;13.30;99.90
4725;DHT22;2376;53.544;10.226;2022-08-07T01:22:28;13.30;99.90
4725;DHT22;2376;53.544;10.226;2022-08-07T01:24:56;13.40;99.90
4725;DHT22;2376;53.544;10.226;2022-08-07T01:27:23;13.40;99.90
4725;DHT22;2376;53.544;10.226;2022-08-07T01:29:50;13.50;99.90
4725;DHT22;2376;53.544;10.226;2022-08-07T01:32:17;13.40;99.90
4725;DHT22;2376;53.544;10.226;2022-08-07T01:34:44;13.30;99.90
4725;DHT22;2376;53.544;10.226;2022-08-07T01:37:11;13.30;99.90
4725;DHT22;2376;53.544;10.226;2022-08-07T01:39:43;13.30;99.90
4725;DHT22;2376;53.544;10.226;2022-08-07T01:42:10;13.40;99.90
4725;DHT22;2376;53.544;10.226;2022-08-07T01:44:37;13.40;99.90
4725;DHT22;2376;53.544;10.226;2022-08-07T01:47:04;13.40;99.90
4725;DHT22;2376;53.544;10.226;2022-08-07T01:49:31;13.40;99.90
4725;DHT22;2376;53.544;10.226;2022-08-07T01:51:59;13.30;99.90
4725;DHT22;2376;53.544;10.226;2022-08-07T01:54:27;13.30;99.90
4725;DHT22;2376;53.544;10.226;2022-08-07T01:57:02;13.20;99.90
4725;DHT22;2376;53.544;10.226;2022-08-07T01:59:34;13.10;99.90
4725;DHT22;2376;53.544;10.226;2022-08-07T02:02:08;13.00;99.90
4725;DHT22;2376;53.544;10.226;2022-08-07T02:04:40;12.90;99.90
4725;DHT22;2376;53.544;10.226;2022-08-07T02:07:10;13.00;99.90
4725;DHT22;2376;53.544;10.226;2022-08-07T02:09:40;13.00;99.90
4725;DHT22;2376;53.544;10.226;2022-08-07T02:12:10;13.00;99.90
4725;DHT22;2376;53.544;10.226;2022-08-07T02:14:47;12.90;99.90
4725;DHT22;2376;53.544;10.226;2022-08-07T02:17:14;12.90;99.90
4725;DHT22;2376;53.544;10.226;2022-08-07T02:19:43;12.80;99.90
4725;DHT22;2376;53.544;10.226;2022-08-07T02:22:11;12.80;99.90
4725;DHT22;2376;53.544;10.226;2022-08-07T02:24:40;12.80;99.90
4725;DHT22;2376;53.544;10.226;2022-08-07T02:27:09;12.80;99.90
4725;DHT22;2376;53.544;10.226;2022-08-07T02:29:38;12.80;99.90
4725;DHT22;2376;53.544;10.226;2022-08-07T02:32:06;12.60;99.90
4725;DHT22;2376;53.544;10.226;2022-08-07T02:34:35;12.60;99.90
4725;DHT22;2376;53.544;10.226;2022-08-07T02:37:03;12.60;99.90
4725;DHT22;2376;53.544;10.226;2022-08-07T02:39:33;12.50;99.90
4725;DHT22;2376;53.544;10.226;2022-08-07T02:42:02;12.60;99.90
4725;DHT22;2376;53.544;10.226;2022-08-07T02:44:30;12.70;99.90
4725;DHT22;2376;53.544;10.226;2022-08-07T02:46:59;12.80;99.90
4725;DHT22;2376;53.544;10.226;2022-08-07T02:49:27;12.70;99.90
4725;DHT22;2376;53.544;10.226;2022-08-07T02:51:56;12.70;99.90
4725;DHT22;2376;53.544;10.226;2022-08-07T02:54:25;12.80;99.90
4725;DHT22;2376;53.544;10.226;2022-08-07T02:56:54;12.80;99.90
4725;DHT22;2376;53.544;10.226;2022-08-07T02:59:24;12.70;99.90
4725;DHT22;2376;53.544;10.226;2022-08-07T03:01:53;12.70;99.90
4725;DHT22;2376;53.544;10.226;2022-08-07T03:04:22;12.60;99.90
4725;DHT22;2376;53.544;10.226;2022-08-07T03:06:49;12.70;99.90
4725;DHT22;2376;53.544;10.226;2022-08-07T03:09:17;12.80;99.90
4725;DHT22;2376;53.544;10.226;2022-08-07T03:11:44;12.80;99.90
4725;DHT22;2376;53.544;10.226;2022-08-07T03:14:11;12.70;99.90
4725;DHT22;2376;53.544;10.226;2022-08-07T03:16:39;12.70;99.90
4725;DHT22;2376;53.544;10.226;2022-08-07T03:19:07;12.70;99.90
4725;DHT22;2376;53.544;10.226;2022-08-07T03:21:34;12.70;99.90
4725;DHT22;2376;53.544;10.226;2022-08-07T03:24:03;12.70;99.90
4725;DHT22;2376;53.544;10.226;2022-08-07T03:26:32;12.60;99.90
4725;DHT22;2376;53.544;10.226;2022-08-07T03:29:01;12.60;99.90
4725;DHT22;2376;53.544;10.226;2022-08-07T03:31:29;12.60;99.90
4725;DHT22;2376;53.544;10.226;2022-08-07T03:33:58;12.60;99.90
4725;DHT22;2376;53.544;10.226;2022-08-07T03:36:27;12.60;99.90
4725;DHT22;2376;53.544;10.226;2022-08-07T03:38:58;12.60;99.90
4725;DHT22;2376;53.544;10.226;2022-08-07T03:41:27;12.50;99.90
4725;DHT22;2376;53.544;10.226;2022-08-07T03:43:56;12.30;99.90
4725;DHT22;2376;53.544;10.226;2022-08-07T03:46:23;12.20;99.90
4725;DHT22;2376;53.544;10.226;2022-08-07T03:48:51;12.10;99.90
4725;DHT22;2376;53.544;10.226;2022-08-07T03:51:19;12.10;99.90
4725;DHT22;2376;53.544;10.226;2022-08-07T03:53:47;12.00;99.90
4725;DHT22;2376;53.544;10.226;2022-08-07T03:56:18;12.10;99.90
4725;DHT22;2376;53.544;10.226;2022-08-07T03:58:46;12.10;99.90
4725;DHT22;2376;53.544;10.226;2022-08-07T04:01:13;12.20;99.90
4725;DHT22;2376;53.544;10.226;2022-08-07T04:03:41;12.20;99.90
4725;DHT22;2376;53.544;10.226;2022-08-07T04:06:09;12.20;99.90
4725;DHT22;2376;53.544;10.226;2022-08-07T04:08:37;12.20;99.90
4725;DHT22;2376;53.544;10.226;2022-08-07T04:11:07;12.30;99.90
4725;DHT22;2376;53.544;10.226;2022-08-07T04:13:34;12.30;99.90
4725;DHT22;2376;53.544;10.226;2022-08-07T04:16:02;12.30;99.90
4725;DHT22;2376;53.544;10.226;2022-08-07T04:18:29;12.20;99.90
4725;DHT22;2376;53.544;10.226;2022-08-07T04:20:56;12.30;99.90
4725;DHT22;2376;53.544;10.226;2022-08-07T04:23:23;12.40;99.90
4725;DHT22;2376;53.544;10.226;2022-08-07T04:25:52;12.40;99.90
4725;DHT22;2376;53.544;10.226;2022-08-07T04:28:20;12.40;99.90
4725;DHT22;2376;53.544;10.226;2022-08-07T04:30:48;12.40;99.90
4725;DHT22;2376;53.544;10.226;2022-08-07T04:33:15;12.40;99.90
4725;DHT22;2376;53.544;10.226;2022-08-07T04:35:44;12.40;99.90
4725;DHT22;2376;53.544;10.226;2022-08-07T04:38:12;12.50;99.90
4725;DHT22;2376;53.544;10.226;2022-08-07T04:40:41;12.50;99.90
4725;DHT22;2376;53.544;10.226;2022-08-07T04:43:08;12.50;99.90
4725;DHT22;2376;53.544;10.226;2022-08-07T04:45:46;12.50;99.90
4725;DHT22;2376;53.544;10.226;2022-08-07T04:48:21;12.50;99.90
4725;DHT22;2376;53.544;10.226;2022-08-07T04:50:55;12.60;99.90
4725;DHT22;2376;53.544;10.226;2022-08-07T04:53:33;12.60;99.90
4725;DHT22;2376;53.544;10.226;2022-08-07T04:56:08;12.60;99.90
4725;DHT22;2376;53.544;10.226;2022-08-07T04:58:42;12.60;99.90
4725;DHT22;2376;53.544;10.226;2022-08-07T05:01:16;12.70;99.90
4725;DHT22;2376;53.544;10.226;2022-08-07T05:03:49;12.80;99.90
4725;DHT22;2376;53.544;10.226;2022-08-07T05:06:21;12.90;99.90
4725;DHT22;2376;53.544;10.226;2022-08-07T05:08:55;13.00;99.90
4725;DHT22;2376;53.544;10.226;2022-08-07T05:11:29;13.00;99.90
4725;DHT22;2376;53.544;10.226;2022-08-07T05:14:00;13.10;99.90
4725;DHT22;2376;53.544;10.226;2022-08-07T05:16:30;13.10;99.90
4725;DHT22;2376;53.544;10.226;2022-08-07T05:19:02;13.10;99.90
4725;DHT22;2376;53.544;10.226;2022-08-07T05:21:30;13.10;99.90
4725;DHT22;2376;53.544;10.226;2022-08-07T05:24:00;13.20;99.90
4725;DHT22;2376;53.544;10.226;2022-08-07T05:26:31;13.20;99.90
4725;DHT22;2376;53.544;10.226;2022-08-07T05:29:00;13.30;99.90
4725;DHT22;2376;53.544;10.226;2022-08-07T05:31:30;13.30;99.90
4725;DHT22;2376;53.544;10.226;2022-08-07T05:33:59;13.30;99.90
4725;DHT22;2376;53.544;10.226;2022-08-07T05:36:27;13.30;99.90
4725;DHT22;2376;53.544;10.226;2022-08-07T05:38:55;13.40;99.90
4725;DHT22;2376;53.544;10.226;2022-08-07T05:41:23;13.40;99.90
4725;DHT22;2376;53.544;10.226;2022-08-07T05:43:53;13.40;99.90
4725;DHT22;2376;53.544;10.226;2022-08-07T05:46:21;13.50;99.90
4725;DHT22;2376;53.544;10.226;2022-08-07T05:48:51;13.50;99.90
4725;DHT22;2376;53.544;10.226;2022-08-07T05:51:18;13.60;99.90
4725;DHT22;2376;53.544;10.226;2022-08-07T05:53:47;13.70;99.90
4725;DHT22;2376;53.544;10.226;2022-08-07T05:56:15;13.70;99.90
4725;DHT22;2376;53.544;10.226;2022-08-07T05:58:44;13.80;99.90
4725;DHT22;2376;53.544;10.226;2022-08-07T06:01:13;13.80;99.90
4725;DHT22;2376;53.544;10.226;2022-08-07T06:03:44;13.90;99.90
4725;DHT22;2376;53.544;10.226;2022-08-07T06:06:12;13.90;99.90
4725;DHT22;2376;53.544;10.226;2022-08-07T06:08:39;13.90;99.90
4725;DHT22;2376;53.544;10.226;2022-08-07T06:11:07;14.00;99.90
4725;DHT22;2376;53.544;10.226;2022-08-07T06:13:35;14.00;99.90
4725;DHT22;2376;53.544;10.226;2022-08-07T06:16:02;14.00;99.90
4725;DHT22;2376;53.544;10.226;2022-08-07T06:18:29;14.00;99.90
4725;DHT22;2376;53.544;10.226;2022-08-07T06:20:58;14.00;99.90
4725;DHT22;2376;53.544;10.226;2022-08-07T06:23:26;14.00;99.90
4725;DHT22;2376;53.544;10.226;2022-08-07T06:25:53;14.10;99.90
4725;DHT22;2376;53.544;10.226;2022-08-07T06:28:20;14.20;99.90
4725;DHT22;2376;53.544;10.226;2022-08-07T06:30:47;14.20;99.90
4725;DHT22;2376;53.544;10.226;2022-08-07T06:33:14;14.20;99.90
4725;DHT22;2376;53.544;10.226;2022-08-07T06:35:41;14.30;99.90
4725;DHT22;2376;53.544;10.226;2022-08-07T06:38:08;14.30;99.90
4725;DHT22;2376;53.544;10.226;2022-08-07T06:40:38;14.30;99.90
4725;DHT22;2376;53.544;10.226;2022-08-07T06:43:08;14.30;99.90
4725;DHT22;2376;53.544;10.226;2022-08-07T06:45:35;14.40;99.90
4725;DHT22;2376;53.544;10.226;2022-08-07T06:48:03;14.40;99.90
4725;DHT22;2376;53.544;10.226;2022-08-07T06:50:32;14.50;99.90
4725;DHT22;2376;53.544;10.226;2022-08-07T06:53:00;14.50;99.90
4725;DHT22;2376;53.544;10.226;2022-08-07T06:55:30;14.50;99.90
4725;DHT22;2376;53.544;10.226;2022-08-07T06:58:01;14.60;99.90
4725;DHT22;2376;53.544;10.226;2022-08-07T07:00:32;14.60;99.90
4725;DHT22;2376;53.544;10.226;2022-08-07T07:03:00;14.60;99.90
4725;DHT22;2376;53.544;10.226;2022-08-07T07:05:28;14.70;99.90
4725;DHT22;2376;53.544;10.226;2022-08-07T07:07:55;14.70;99.90
4725;DHT22;2376;53.544;10.226;2022-08-07T07:10:27;14.80;99.90
4725;DHT22;2376;53.544;10.226;2022-08-07T07:12:57;14.80;99.90
4725;DHT22;2376;53.544;10.226;2022-08-07T07:15:29;14.90;99.90
4725;DHT22;2376;53.544;10.226;2022-08-07T07:18:01;14.90;99.90
4725;DHT22;2376;53.544;10.226;2022-08-07T07:20:35;15.00;99.90
4725;DHT22;2376;53.544;10.226;2022-08-07T07:23:03;15.00;99.90
4725;DHT22;2376;53.544;10.226;2022-08-07T07:25:32;15.10;99.90
4725;DHT22;2376;53.544;10.226;2022-08-07T07:28:04;15.20;99.90
4725;DHT22;2376;53.544;10.226;2022-08-07T07:30:41;15.20;99.90
4725;DHT22;2376;53.544;10.226;2022-08-07T07:33:10;15.30;99.90
4725;DHT22;2376;53.544;10.226;2022-08-07T07:35:40;15.40;99.90
4725;DHT22;2376;53.544;10.226;2022-08-07T07:38:08;15.40;99.90
4725;DHT22;2376;53.544;10.226;2022-08-07T07:40:37;15.50;99.90
4725;DHT22;2376;53.544;10.226;2022-08-07T07:43:05;15.60;99.90
4725;DHT22;2376;53.544;10.226;2022-08-07T07:45:34;15.70;99.90
4725;DHT22;2376;53.544;10.226;2022-08-07T07:48:04;15.80;99.90
4725;DHT22;2376;53.544;10.226;2022-08-07T07:50:32;15.90;99.90
4725;DHT22;2376;53.544;10.226;2022-08-07T07:53:01;16.00;99.90
4725;DHT22;2376;53.544;10.226;2022-08-07T07:55:29;16.20;99.90
4725;DHT22;2376;53.544;10.226;2022-08-07T07:57:57;16.30;99.90
4725;DHT22;2376;53.544;10.226;2022-08-07T08:00:26;16.40;99.90
4725;DHT22;2376;53.544;10.226;2022-08-07T08:02:56;16.60;99.90
4725;DHT22;2376;53.544;10.226;2022-08-07T08:05:24;16.70;99.90
4725;DHT22;2376;53.544;10.226;2022-08-07T08:07:51;16.90;99.90
4725;DHT22;2376;53.544;10.226;2022-08-07T08:10:18;17.10;99.90
4725;DHT22;2376;53.544;10.226;2022-08-07T08:12:48;17.20;99.90
4725;DHT22;2376;53.544;10.226;2022-08-07T08:15:15;17.30;99.90
4725;DHT22;2376;53.544;10.226;2022-08-07T08:17:43;17.50;99.90
4725;DHT22;2376;53.544;10.226;2022-08-07T08:20:11;17.60;99.90
4725;DHT22;2376;53.544;10.226;2022-08-07T08:22:42;17.80;99.90
4725;DHT22;2376;53.544;10.226;2022-08-07T08:25:29;17.90;99.90
4725;DHT22;2376;53.544;10.226;2022-08-07T08:28:19;18.10;99.90
4725;DHT22;2376;53.544;10.226;2022-08-07T08:30:49;18.20;99.90
4725;DHT22;2376;53.544;10.226;2022-08-07T08:33:18;18.30;99.90
4725;DHT22;2376;53.544;10.226;2022-08-07T08:35:47;18.50;99.90
4725;DHT22;2376;53.544;10.226;2022-08-07T08:38:17;18.70;99.90
4725;DHT22;2376;53.544;10.226;2022-08-07T08:40:50;18.80;99.90
4725;DHT22;2376;53.544;10.226;2022-08-07T08:43:22;18.90;99.90
4725;DHT22;2376;53.544;10.226;2022-08-07T08:46:05;19.00;99.90
4725;DHT22;2376;53.544;10.226;2022-08-07T08:48:42;19.20;99.90
4725;DHT22;2376;53.544;10.226;2022-08-07T08:51:17;19.20;99.90
4725;DHT22;2376;53.544;10.226;2022-08-07T08:53:51;19.30;99.90
4725;DHT22;2376;53.544;10.226;2022-08-07T08:56:23;19.40;99.90
4725;DHT22;2376;53.544;10.226;2022-08-07T08:58:55;19.40;99.90
4725;DHT22;2376;53.544;10.226;2022-08-07T09:01:30;19.50;99.90
4725;DHT22;2376;53.544;10.226;2022-08-07T09:04:09;19.60;99.90
4725;DHT22;2376;53.544;10.226;2022-08-07T09:06:47;19.80;99.90
4725;DHT22;2376;53.544;10.226;2022-08-07T09:09:36;19.80;99.90
4725;DHT22;2376;53.544;10.226;2022-08-07T09:12:13;20.00;99.90
4725;DHT22;2376;53.544;10.226;2022-08-07T09:14:50;20.00;99.90
4725;DHT22;2376;53.544;10.226;2022-08-07T09:17:34;20.00;99.90
4725;DHT22;2376;53.544;10.226;2022-08-07T09:20:11;20.10;99.90
4725;DHT22;2376;53.544;10.226;2022-08-07T09:22:53;20.20;99.90
4725;DHT22;2376;53.544;10.226;2022-08-07T09:25:24;20.30;99.90
4725;DHT22;2376;53.544;10.226;2022-08-07T09:27:58;20.40;99.90
4725;DHT22;2376;53.544;10.226;2022-08-07T09:30:33;20.40;99.90
4725;DHT22;2376;53.544;10.226;2022-08-07T09:33:14;20.40;99.90
4725;DHT22;2376;53.544;10.226;2022-08-07T09:35:53;20.50;99.90
4725;DHT22;2376;53.544;10.226;2022-08-07T09:38:26;20.70;99.90
4725;DHT22;2376;53.544;10.226;2022-08-07T09:41:03;20.90;99.90
4725;DHT22;2376;53.544;10.226;2022-08-07T09:43:49;21.10;99.90
4725;DHT22;2376;53.544;10.226;2022-08-07T09:46:27;21.20;99.90
4725;DHT22;2376;53.544;10.226;2022-08-07T09:49:03;21.20;99.90
4725;DHT22;2376;53.544;10.226;2022-08-07T09:51:49;21.20;99.90
4725;DHT22;2376;53.544;10.226;2022-08-07T09:54:23;21.30;99.90
4725;DHT22;2376;53.544;10.226;2022-08-07T09:57:20;21.30;99.50
4725;DHT22;2376;53.544;10.226;2022-08-07T10:00:07;21.40;99.50
4725;DHT22;2376;53.544;10.226;2022-08-07T10:02:48;21.60;99.60
4725;DHT22;2376;53.544;10.226;2022-08-07T10:05:33;21.70;99.30
4725;DHT22;2376;53.544;10.226;2022-08-07T10:08:13;21.80;98.20
4725;DHT22;2376;53.544;10.226;2022-08-07T10:10:48;21.90;97.70
4725;DHT22;2376;53.544;10.226;2022-08-07T10:16:27;22.10;96.60
4725;DHT22;2376;53.544;10.226;2022-08-07T10:19:11;22.00;94.10
4725;DHT22;2376;53.544;10.226;2022-08-07T10:21:55;22.00;94.20
4725;DHT22;2376;53.544;10.226;2022-08-07T10:24:42;22.00;93.20
4725;DHT22;2376;53.544;10.226;2022-08-07T10:27:35;22.10;92.50
4725;DHT22;2376;53.544;10.226;2022-08-07T10:30:10;22.20;93.20
4725;DHT22;2376;53.544;10.226;2022-08-07T10:32:59;22.40;93.00
4725;DHT22;2376;53.544;10.226;2022-08-07T10:35:48;22.50;93.40
4725;DHT22;2376;53.544;10.226;2022-08-07T10:38:31;22.60;92.30
4725;DHT22;2376;53.544;10.226;2022-08-07T10:41:06;22.70;92.60
4725;DHT22;2376;53.544;10.226;2022-08-07T10:43:38;22.90;92.30
4725;DHT22;2376;53.544;10.226;2022-08-07T10:46:14;22.90;90.90
4725;DHT22;2376;53.544;10.226;2022-08-07T10:48:54;23.00;89.50
4725;DHT22;2376;53.544;10.226;2022-08-07T10:51:30;23.10;85.20
4725;DHT22;2376;53.544;10.226;2022-08-07T10:54:06;23.10;85.20
4725;DHT22;2376;53.544;10.226;2022-08-07T10:56:43;23.10;84.80
4725;DHT22;2376;53.544;10.226;2022-08-07T10:59:18;23.10;83.20
4725;DHT22;2376;53.544;10.226;2022-08-07T11:01:50;22.80;80.50
4725;DHT22;2376;53.544;10.226;2022-08-07T11:04:26;22.80;79.80
4725;DHT22;2376;53.544;10.226;2022-08-07T11:07:02;22.80;80.50
4725;DHT22;2376;53.544;10.226;2022-08-07T11:09:35;22.80;80.60
4725;DHT22;2376;53.544;10.226;2022-08-07T11:12:10;22.80;77.60
4725;DHT22;2376;53.544;10.226;2022-08-07T11:14:40;22.70;78.30
4725;DHT22;2376;53.544;10.226;2022-08-07T11:17:14;22.70;77.70
4725;DHT22;2376;53.544;10.226;2022-08-07T11:19:49;22.60;77.90
4725;DHT22;2376;53.544;10.226;2022-08-07T11:22:24;22.60;77.90
4725;DHT22;2376;53.544;10.226;2022-08-07T11:24:57;22.60;78.90
4725;DHT22;2376;53.544;10.226;2022-08-07T11:27:29;22.70;80.80
4725;DHT22;2376;53.544;10.226;2022-08-07T11:30:03;22.80;82.80
4725;DHT22;2376;53.544;10.226;2022-08-07T11:32:36;22.90;82.10
4725;DHT22;2376;53.544;10.226;2022-08-07T11:35:08;22.90;80.10
4725;DHT22;2376;53.544;10.226;2022-08-07T11:37:55;22.90;79.40
4725;DHT22;2376;53.544;10.226;2022-08-07T11:40:32;23.00;78.20
4725;DHT22;2376;53.544;10.226;2022-08-07T11:43:07;22.90;77.40
4725;DHT22;2376;53.544;10.226;2022-08-07T11:45:44;22.70;76.70
4725;DHT22;2376;53.544;10.226;2022-08-07T11:48:34;22.70;78.60
4725;DHT22;2376;53.544;10.226;2022-08-07T11:51:17;22.50;79.10
4725;DHT22;2376;53.544;10.226;2022-08-07T11:53:53;22.50;77.70
4725;DHT22;2376;53.544;10.226;2022-08-07T11:56:34;22.30;76.20
4725;DHT22;2376;53.544;10.226;2022-08-07T11:59:14;22.30;77.10
4725;DHT22;2376;53.544;10.226;2022-08-07T12:01:55;22.30;76.30
4725;DHT22;2376;53.544;10.226;2022-08-07T12:04:36;22.20;76.40
4725;DHT22;2376;53.544;10.226;2022-08-07T12:07:08;22.20;76.40
4725;DHT22;2376;53.544;10.226;2022-08-07T12:09:41;22.20;76.40
4725;DHT22;2376;53.544;10.226;2022-08-07T12:12:12;22.20;77.30
4725;DHT22;2376;53.544;10.226;2022-08-07T12:14:46;22.20;76.20
4725;DHT22;2376;53.544;10.226;2022-08-07T12:17:16;22.10;75.70
4725;DHT22;2376;53.544;10.226;2022-08-07T12:19:49;22.10;76.00
4725;DHT22;2376;53.544;10.226;2022-08-07T12:22:22;22.10;76.10
4725;DHT22;2376;53.544;10.226;2022-08-07T12:24:58;22.10;75.50
4725;DHT22;2376;53.544;10.226;2022-08-07T12:27:48;22.10;75.50
4725;DHT22;2376;53.544;10.226;2022-08-07T12:30:17;22.10;74.70
4725;DHT22;2376;53.544;10.226;2022-08-07T12:32:51;22.00;74.50
4725;DHT22;2376;53.544;10.226;2022-08-07T12:35:22;22.00;75.50
4725;DHT22;2376;53.544;10.226;2022-08-07T12:37:50;21.90;75.90
4725;DHT22;2376;53.544;10.226;2022-08-07T12:40:20;22.00;77.10
4725;DHT22;2376;53.544;10.226;2022-08-07T12:42:51;22.20;78.20
4725;DHT22;2376;53.544;10.226;2022-08-07T12:45:21;22.30;78.80
4725;DHT22;2376;53.544;10.226;2022-08-07T12:47:57;22.50;77.30
4725;DHT22;2376;53.544;10.226;2022-08-07T12:50:32;22.70;78.40
4725;DHT22;2376;53.544;10.226;2022-08-07T12:53:06;22.80;76.50
4725;DHT22;2376;53.544;10.226;2022-08-07T12:55:40;22.90;77.30
4725;DHT22;2376;53.544;10.226;2022-08-07T12:58:12;23.00;75.70
4725;DHT22;2376;53.544;10.226;2022-08-07T13:00:46;23.10;76.20
4725;DHT22;2376;53.544;10.226;2022-08-07T13:03:43;23.20;73.40
4725;DHT22;2376;53.544;10.226;2022-08-07T13:06:25;23.20;70.60
4725;DHT22;2376;53.544;10.226;2022-08-07T13:09:00;23.40;72.50
4725;DHT22;2376;53.544;10.226;2022-08-07T13:11:45;23.50;71.50
4725;DHT22;2376;53.544;10.226;2022-08-07T13:14:23;23.60;70.80
4725;DHT22;2376;53.544;10.226;2022-08-07T13:16:59;23.70;68.30
4725;DHT22;2376;53.544;10.226;2022-08-07T13:19:34;23.80;66.80
4725;DHT22;2376;53.544;10.226;2022-08-07T13:22:10;23.80;66.30
4725;DHT22;2376;53.544;10.226;2022-08-07T13:24:43;23.90;66.00
4725;DHT22;2376;53.544;10.226;2022-08-07T13:27:14;24.00;65.30
4725;DHT22;2376;53.544;10.226;2022-08-07T13:29:48;24.00;65.50
4725;DHT22;2376;53.544;10.226;2022-08-07T13:32:24;24.00;66.00
4725;DHT22;2376;53.544;10.226;2022-08-07T13:34:56;24.10;64.40
4725;DHT22;2376;53.544;10.226;2022-08-07T13:37:32;24.10;65.30
4725;DHT22;2376;53.544;10.226;2022-08-07T13:40:12;24.10;65.40
4725;DHT22;2376;53.544;10.226;2022-08-07T13:42:42;24.20;66.30
4725;DHT22;2376;53.544;10.226;2022-08-07T13:45:10;24.30;65.80
4725;DHT22;2376;53.544;10.226;2022-08-07T13:47:39;24.30;65.30
4725;DHT22;2376;53.544;10.226;2022-08-07T13:50:08;24.30;65.00
4725;DHT22;2376;53.544;10.226;2022-08-07T13:52:39;24.30;65.30
4725;DHT22;2376;53.544;10.226;2022-08-07T13:55:11;24.30;63.80
4725;DHT22;2376;53.544;10.226;2022-08-07T13:57:41;24.00;63.00
4725;DHT22;2376;53.544;10.226;2022-08-07T14:00:09;24.00;66.30
4725;DHT22;2376;53.544;10.226;2022-08-07T14:02:37;23.80;63.20
4725;DHT22;2376;53.544;10.226;2022-08-07T14:05:08;23.70;63.90
4725;DHT22;2376;53.544;10.226;2022-08-07T14:07:40;23.70;64.80
4725;DHT22;2376;53.544;10.226;2022-08-07T14:10:08;23.90;63.50
4725;DHT22;2376;53.544;10.226;2022-08-07T14:12:39;24.00;63.30
4725;DHT22;2376;53.544;10.226;2022-08-07T14:15:18;24.10;63.70
4725;DHT22;2376;53.544;10.226;2022-08-07T14:17:46;24.10;64.30
4725;DHT22;2376;53.544;10.226;2022-08-07T14:20:18;24.20;63.70
4725;DHT22;2376;53.544;10.226;2022-08-07T14:22:50;24.20;60.30
4725;DHT22;2376;53.544;10.226;2022-08-07T14:25:23;24.20;63.00
4725;DHT22;2376;53.544;10.226;2022-08-07T14:27:51;24.20;63.60
4725;DHT22;2376;53.544;10.226;2022-08-07T14:30:19;24.40;64.30
4725;DHT22;2376;53.544;10.226;2022-08-07T14:32:53;24.50;64.80
4725;DHT22;2376;53.544;10.226;2022-08-07T14:35:21;24.60;64.40
4725;DHT22;2376;53.544;10.226;2022-08-07T14:37:52;24.50;61.20
4725;DHT22;2376;53.544;10.226;2022-08-07T14:40:22;24.40;59.60
4725;DHT22;2376;53.544;10.226;2022-08-07T14:42:55;24.10;59.20
4725;DHT22;2376;53.544;10.226;2022-08-07T14:45:25;24.00;59.00
4725;DHT22;2376;53.544;10.226;2022-08-07T14:47:53;24.10;59.60
4725;DHT22;2376;53.544;10.226;2022-08-07T14:50:22;24.00;59.60
4725;DHT22;2376;53.544;10.226;2022-08-07T14:52:53;24.00;58.80
4725;DHT22;2376;53.544;10.226;2022-08-07T14:55:26;24.10;60.10
4725;DHT22;2376;53.544;10.226;2022-08-07T14:57:54;24.20;60.80
4725;DHT22;2376;53.544;10.226;2022-08-07T15:00:27;24.20;58.60
4725;DHT22;2376;53.544;10.226;2022-08-07T15:02:56;24.10;58.60
4725;DHT22;2376;53.544;10.226;2022-08-07T15:05:25;24.10;59.60
4725;DHT22;2376;53.544;10.226;2022-08-07T15:07:55;24.30;60.50
4725;DHT22;2376;53.544;10.226;2022-08-07T15:10:24;24.50;60.10
4725;DHT22;2376;53.544;10.226;2022-08-07T15:12:53;24.60;58.80
4725;DHT22;2376;53.544;10.226;2022-08-07T15:15:24;24.70;59.60
4725;DHT22;2376;53.544;10.226;2022-08-07T15:17:58;24.80;59.30
4725;DHT22;2376;53.544;10.226;2022-08-07T15:20:29;24.80;57.10
4725;DHT22;2376;53.544;10.226;2022-08-07T15:22:59;24.80;57.40
4725;DHT22;2376;53.544;10.226;2022-08-07T15:25:34;24.90;57.30
4725;DHT22;2376;53.544;10.226;2022-08-07T15:28:03;24.90;57.80
4725;DHT22;2376;53.544;10.226;2022-08-07T15:30:33;25.00;58.40
4725;DHT22;2376;53.544;10.226;2022-08-07T15:33:02;24.80;57.70
4725;DHT22;2376;53.544;10.226;2022-08-07T15:35:31;24.90;56.50
4725;DHT22;2376;53.544;10.226;2022-08-07T15:38:01;24.90;57.10
4725;DHT22;2376;53.544;10.226;2022-08-07T15:40:31;24.90;56.60
4725;DHT22;2376;53.544;10.226;2022-08-07T15:43:09;24.80;56.10
4725;DHT22;2376;53.544;10.226;2022-08-07T15:45:40;24.80;56.50
4725;DHT22;2376;53.544;10.226;2022-08-07T15:48:14;24.50;55.20
4725;DHT22;2376;53.544;10.226;2022-08-07T15:50:44;24.40;55.50
4725;DHT22;2376;53.544;10.226;2022-08-07T15:53:15;24.40;57.00
4725;DHT22;2376;53.544;10.226;2022-08-07T15:55:43;24.50;57.50
4725;DHT22;2376;53.544;10.226;2022-08-07T15:58:13;24.40;56.60
4725;DHT22;2376;53.544;10.226;2022-08-07T16:00:41;24.20;56.10
4725;DHT22;2376;53.544;10.226;2022-08-07T16:03:13;24.00;55.60
4725;DHT22;2376;53.544;10.226;2022-08-07T16:05:44;24.00;56.80
4725;DHT22;2376;53.544;10.226;2022-08-07T16:08:15;23.90;57.70
4725;DHT22;2376;53.544;10.226;2022-08-07T16:10:50;23.90;58.10
4725;DHT22;2376;53.544;10.226;2022-08-07T16:13:49;23.80;58.30
4725;DHT22;2376;53.544;10.226;2022-08-07T16:16:28;23.90;59.20